Time;durP1;ratioP1;P1;durP2;ratioP2;P2;SDS_P1;SDS_P2;PMS_P1;PMS_P2;Temp;Humidity;BMP_temperature;BMP_pressure;BME280_temperature;BME280_humidity;BME280_pressure;Samples;Min_cycle;Max_cycle;Signal;HPM_P1;HPM_P2
2023/05/17 00:00:34;;;;;;;7.13;6.72;;;;;;;;;;2091147;28;20028;-64
2023/05/17 00:01:55;;;;;;;7.32;6.72;;;;;;;;;;2094771;28;20428;-66
2023/05/17 00:03:14;;;;;;;6.88;6.25;;;;;;;;;;2088368;28;20029;-65
2023/05/17 00:04:33;;;;;;;7.13;6.47;;;;;;;;;;2088692;28;20033;-64
2023/05/17 00:05:52;;;;;;;7.32;6.72;;;;;;;;;;2093357;28;20045;-64
2023/05/17 00:07:11;;;;;;;7.43;6.82;;;;;;;;;;2088589;28;20051;-65
2023/05/17 00:08:30;;;;;;;7.25;6.70;;;;;;;;;;2091878;28;20028;-64
2023/05/17 00:09:49;;;;;;;8.23;6.65;;;;;;;;;;2092463;28;20025;-64
2023/05/17 00:11:08;;;;;;;7.55;6.82;;;;;;;;;;2087235;28;20477;-64
2023/05/17 00:12:27;;;;;;;8.43;7.82;;;;;;;;;;2093696;28;20398;-65
2023/05/17 00:13:46;;;;;;;7.25;6.72;;;;;;;;;;2094748;28;20032;-64
2023/05/17 00:15:05;;;;;;;7.40;6.90;;;;;;;;;;2085663;28;20037;-64
2023/05/17 00:16:24;;;;;;;7.63;6.85;;;;;;;;;;2089051;28;20037;-65
2023/05/17 00:17:43;;;;;;;7.43;6.82;;;;;;;;;;2093067;28;20067;-64
2023/05/17 00:19:02;;;;;;;7.60;7.10;;;;;;;;;;2089425;28;20025;-64
2023/05/17 00:20:21;;;;;;;7.75;7.05;;;;;;;;;;2083425;28;20117;-64
2023/05/17 00:21:39;;;;;;;7.88;7.38;;;;;;;;;;2087916;28;20029;-65
2023/05/17 00:22:59;;;;;;;8.48;7.60;;;;;;;;;;2090975;28;20028;-64
2023/05/17 00:24:18;;;;;;;7.05;6.65;;;;;;;;;;2092776;28;20059;-64
2023/05/17 00:25:37;;;;;;;7.60;7.10;;;;;;;;;;2091014;28;20037;-64
2023/05/17 00:26:56;;;;;;;8.07;7.47;;;;;;;;;;2090416;28;20504;-64
2023/05/17 00:28:15;;;;;;;8.02;7.40;;;;;;;;;;2091756;28;20025;-65
2023/05/17 00:29:34;;;;;;;8.40;7.55;;;;;;;;;;2089725;28;20025;-63
2023/05/17 00:30:53;;;;;;;7.47;6.97;;;;;;;;;;2083485;28;20061;-64
2023/05/17 00:32:12;;;;;;;8.05;7.35;;;;;;;;;;2087613;28;20029;-64
2023/05/17 00:33:30;;;;;;;8.40;7.63;;;;;;;;;;2092655;28;20025;-64
2023/05/17 00:34:49;;;;;;;7.80;7.13;;;;;;;;;;2088291;28;20486;-64
2023/05/17 00:36:08;;;;;;;8.30;7.65;;;;;;;;;;2093703;28;20477;-64
2023/05/17 00:37:27;;;;;;;8.25;7.55;;;;;;;;;;2093583;28;20037;-64
2023/05/17 00:38:46;;;;;;;8.35;7.75;;;;;;;;;;2090965;28;20037;-65
2023/05/17 00:40:05;;;;;;;8.70;7.90;;;;;;;;;;2093047;28;20396;-65
2023/05/17 00:41:25;;;;;;;7.97;7.35;;;;;;;;;;2090929;28;20032;-65
2023/05/17 00:42:44;;;;;;;7.97;7.47;;;;;;;;;;2091052;28;20797;-64
2023/05/17 00:44:03;;;;;;;8.63;8.02;;;;;;;;;;2093143;28;20476;-65
2023/05/17 00:45:22;;;;;;;8.10;7.50;;;;;;;;;;2088608;28;20028;-65
2023/05/17 00:46:41;;;;;;;8.15;7.38;;;;;;;;;;2089780;28;20049;-64
2023/05/17 00:48:00;;;;;;;8.52;7.82;;;;;;;;;;2091553;28;20037;-65
2023/05/17 00:49:18;;;;;;;7.88;7.32;;;;;;;;;;2091756;28;20033;-65
2023/05/17 00:50:37;;;;;;;13.68;7.60;;;;;;;;;;2091978;28;20084;-65
2023/05/17 00:51:57;;;;;;;8.57;7.85;;;;;;;;;;2093095;28;20451;-65
2023/05/17 00:53:17;;;;;;;8.23;7.53;;;;;;;;;;2090366;28;20041;-65
2023/05/17 00:54:36;;;;;;;7.72;7.22;;;;;;;;;;2089226;28;20725;-64
2023/05/17 00:55:55;;;;;;;9.25;7.50;;;;;;;;;;2095215;28;20036;-64
2023/05/17 00:57:14;;;;;;;7.90;7.30;;;;;;;;;;2091239;28;20029;-64
2023/05/17 00:58:34;;;;;;;8.38;7.70;;;;;;;;;;2092216;28;20100;-65
2023/05/17 00:59:54;;;;;;;7.60;7.10;;;;;;;;;;2091791;28;20033;-64
2023/05/17 01:01:13;;;;;;;7.78;7.07;;;;;;;;;;2091614;28;20104;-65
2023/05/17 01:02:33;;;;;;;7.97;7.47;;;;;;;;;;2092485;28;20033;-65
2023/05/17 01:03:51;;;;;;;8.07;7.28;;;;;;;;;;2091582;28;20025;-65
2023/05/17 01:05:11;;;;;;;7.80;7.20;;;;;;;;;;2047865;28;1176822;-64
2023/05/17 01:06:30;;;;;;;7.68;7.03;;;;;;;;;;2093282;28;20033;-65
2023/05/17 01:07:49;;;;;;;7.72;7.13;;;;;;;;;;2093223;28;20115;-64
2023/05/17 01:09:08;;;;;;;8.82;7.93;;;;;;;;;;2089512;28;20108;-64
2023/05/17 01:10:32;;;;;;;8.35;7.75;;;;;;;;;;2092478;28;20029;-64
2023/05/17 01:12:06;;;;;;;8.13;7.43;;;;;;;;;;2093758;28;20068;-65
2023/05/17 01:13:44;;;;;;;8.00;7.40;;;;;;;;;;2086093;28;20033;-65
2023/05/17 01:15:06;;;;;;;7.95;7.35;;;;;;;;;;2088884;28;20025;-65
2023/05/17 01:16:32;;;;;;;8.23;7.55;;;;;;;;;;2092565;28;20037;-65
2023/05/17 01:17:56;;;;;;;8.18;7.38;;;;;;;;;;2092294;28;20397;-65
2023/05/17 01:19:35;;;;;;;8.10;7.53;;;;;;;;;;2090003;28;20596;-65
2023/05/17 01:20:57;;;;;;;7.90;7.30;;;;;;;;;;2090887;28;20396;-62
2023/05/17 01:22:25;;;;;;;8.10;7.50;;;;;;;;;;2089016;28;20029;-63
2023/05/17 01:23:55;;;;;;;8.27;7.68;;;;;;;;;;2092043;28;20401;-64
2023/05/17 01:25:15;;;;;;;8.18;7.57;;;;;;;;;;2089732;28;20032;-63
2023/05/17 01:26:43;;;;;;;8.75;7.90;;;;;;;;;;2093892;28;20389;-63
2023/05/17 01:28:03;;;;;;;8.35;7.78;;;;;;;;;;2091014;28;20484;-63
2023/05/17 01:29:25;;;;;;;8.90;7.90;;;;;;;;;;2091507;28;20581;-63
2023/05/17 01:30:46;;;;;;;8.35;7.75;;;;;;;;;;2090657;28;20420;-63
2023/05/17 01:32:05;;;;;;;8.07;7.57;;;;;;;;;;2091279;28;20040;-63
2023/05/17 01:33:24;;;;;;;8.73;7.97;;;;;;;;;;2086718;28;20033;-64
2023/05/17 01:34:42;;;;;;;8.30;7.53;;;;;;;;;;2090085;28;20028;-64
2023/05/17 01:36:01;;;;;;;8.05;7.43;;;;;;;;;;2092164;28;20099;-63
2023/05/17 01:37:20;;;;;;;8.80;7.95;;;;;;;;;;2091067;28;20032;-63
2023/05/17 01:38:39;;;;;;;8.38;7.68;;;;;;;;;;2092324;28;20033;-64
2023/05/17 01:39:59;;;;;;;8.93;8.02;;;;;;;;;;2088647;28;20021;-63
2023/05/17 01:41:28;;;;;;;8.50;7.97;;;;;;;;;;2091414;28;20029;-63
2023/05/17 01:42:53;;;;;;;8.43;7.72;;;;;;;;;;2090171;28;20021;-63
2023/05/17 01:44:21;;;;;;;8.35;7.57;;;;;;;;;;2092856;28;20024;-63
2023/05/17 01:45:42;;;;;;;7.18;6.68;;;;;;;;;;2092169;28;20421;-64
2023/05/17 01:47:06;;;;;;;7.72;7.22;;;;;;;;;;2086387;28;20705;-63
2023/05/17 01:48:35;;;;;;;8.68;7.97;;;;;;;;;;2093855;28;20025;-63
2023/05/17 01:49:56;;;;;;;8.82;8.20;;;;;;;;;;2090727;28;20024;-63
2023/05/17 01:51:17;;;;;;;8.27;7.63;;;;;;;;;;2085527;28;20021;-63
2023/05/17 01:52:43;;;;;;;8.70;8.10;;;;;;;;;;2083657;28;21384;-63
2023/05/17 01:54:10;;;;;;;7.97;7.38;;;;;;;;;;2089769;28;20063;-65
2023/05/17 01:55:29;;;;;;;8.23;7.60;;;;;;;;;;2092389;28;20017;-64
2023/05/17 01:56:53;;;;;;;7.70;7.18;;;;;;;;;;2088780;28;20037;-64
2023/05/17 01:58:12;;;;;;;8.80;8.10;;;;;;;;;;2089478;28;20080;-63
2023/05/17 01:59:32;;;;;;;8.38;7.55;;;;;;;;;;2087222;28;20033;-64
2023/05/17 02:00:54;;;;;;;8.70;8.10;;;;;;;;;;2087792;28;20029;-63
2023/05/17 02:02:13;;;;;;;8.65;7.95;;;;;;;;;;2087376;28;20116;-67
2023/05/17 02:03:32;;;;;;;9.20;7.88;;;;;;;;;;2087185;28;20020;-63
2023/05/17 02:04:51;;;;;;;8.57;7.90;;;;;;;;;;2086812;28;20032;-64
2023/05/17 02:06:10;;;;;;;8.65;7.88;;;;;;;;;;2090079;28;20049;-63
2023/05/17 02:07:29;;;;;;;8.85;8.25;;;;;;;;;;2090981;28;20430;-63
2023/05/17 02:08:48;;;;;;;10.80;8.18;;;;;;;;;;2091441;28;20032;-64
2023/05/17 02:10:07;;;;;;;8.80;8.00;;;;;;;;;;2090283;28;20033;-64
2023/05/17 02:11:26;;;;;;;8.48;7.85;;;;;;;;;;2092408;28;20033;-64
2023/05/17 02:12:45;;;;;;;8.32;7.72;;;;;;;;;;2090908;28;20107;-64
2023/05/17 02:14:04;;;;;;;7.80;7.30;;;;;;;;;;2091373;28;20028;-64
2023/05/17 02:15:23;;;;;;;7.45;6.75;;;;;;;;;;2089428;28;20044;-63
2023/05/17 02:16:42;;;;;;;7.95;7.35;;;;;;;;;;2091876;28;20029;-63
2023/05/17 02:18:01;;;;;;;7.85;7.32;;;;;;;;;;2092551;28;20048;-64
2023/05/17 02:19:20;;;;;;;10.05;8.32;;;;;;;;;;2090562;28;20445;-64
2023/05/17 02:20:39;;;;;;;8.00;7.43;;;;;;;;;;2093291;28;20033;-64
2023/05/17 02:21:58;;;;;;;7.90;7.40;;;;;;;;;;2090727;28;20029;-64
2023/05/17 02:23:17;;;;;;;7.53;7.03;;;;;;;;;;2090823;28;20024;-63
2023/05/17 02:24:36;;;;;;;7.88;7.38;;;;;;;;;;2089586;28;20063;-63
2023/05/17 02:25:55;;;;;;;8.35;7.60;;;;;;;;;;2094240;28;20398;-63
2023/05/17 02:27:14;;;;;;;7.85;7.15;;;;;;;;;;2090088;28;20056;-63
2023/05/17 02:28:33;;;;;;;7.55;7.05;;;;;;;;;;2092302;28;20542;-63
2023/05/17 02:29:52;;;;;;;6.95;6.35;;;;;;;;;;2092331;28;20069;-63
2023/05/17 02:31:11;;;;;;;7.65;7.15;;;;;;;;;;2091435;28;20040;-63
2023/05/17 02:32:30;;;;;;;6.88;6.30;;;;;;;;;;2090127;28;20025;-63
2023/05/17 02:33:49;;;;;;;7.72;7.05;;;;;;;;;;2092480;28;20036;-64
2023/05/17 02:35:08;;;;;;;7.53;6.82;;;;;;;;;;2090350;28;20041;-63
2023/05/17 02:36:27;;;;;;;7.35;6.75;;;;;;;;;;2092816;28;20028;-63
2023/05/17 02:37:46;;;;;;;7.22;6.65;;;;;;;;;;2091606;28;20029;-64
2023/05/17 02:39:05;;;;;;;7.93;7.32;;;;;;;;;;2090147;28;21106;-63
2023/05/17 02:40:24;;;;;;;7.18;6.70;;;;;;;;;;2092323;28;20029;-63
2023/05/17 02:41:43;;;;;;;7.63;7.13;;;;;;;;;;2091116;28;20033;-63
2023/05/17 02:43:02;;;;;;;7.75;7.30;;;;;;;;;;2089720;28;20033;-63
2023/05/17 02:44:21;;;;;;;7.88;7.38;;;;;;;;;;2091810;28;20025;-64
2023/05/17 02:45:42;;;;;;;7.72;7.22;;;;;;;;;;2090261;28;20033;-63
2023/05/17 02:47:01;;;;;;;7.05;6.65;;;;;;;;;;2092118;28;20923;-63
2023/05/17 02:48:20;;;;;;;7.00;6.60;;;;;;;;;;2091959;28;20496;-63
2023/05/17 02:49:38;;;;;;;7.55;6.90;;;;;;;;;;2087684;28;20033;-63
2023/05/17 02:50:57;;;;;;;7.47;6.88;;;;;;;;;;2089377;28;20208;-63
2023/05/17 02:52:16;;;;;;;7.40;7.00;;;;;;;;;;2093686;28;20037;-64
2023/05/17 02:53:35;;;;;;;7.55;6.85;;;;;;;;;;2090680;28;20502;-63
2023/05/17 02:54:54;;;;;;;10.30;7.03;;;;;;;;;;2088548;28;20021;-63
2023/05/17 02:56:13;;;;;;;7.32;6.82;;;;;;;;;;2088339;28;20028;-64
2023/05/17 02:57:32;;;;;;;7.60;7.10;;;;;;;;;;2088401;28;20032;-64
2023/05/17 02:58:51;;;;;;;7.40;6.80;;;;;;;;;;2089061;28;20041;-63
2023/05/17 03:00:10;;;;;;;6.82;6.43;;;;;;;;;;2090689;28;20549;-63
2023/05/17 03:01:29;;;;;;;7.35;6.45;;;;;;;;;;2087707;28;20483;-63
2023/05/17 03:02:48;;;;;;;7.50;7.00;;;;;;;;;;2085201;28;20096;-63
2023/05/17 03:04:07;;;;;;;6.93;6.53;;;;;;;;;;2093308;28;20099;-63
2023/05/17 03:05:26;;;;;;;7.68;7.03;;;;;;;;;;2089420;28;20041;-63
2023/05/17 03:06:45;;;;;;;6.82;6.43;;;;;;;;;;2089951;28;20025;-64
2023/05/17 03:08:04;;;;;;;6.93;6.53;;;;;;;;;;2089031;28;20021;-63
2023/05/17 03:09:23;;;;;;;6.50;6.20;;;;;;;;;;2093386;28;20491;-63
2023/05/17 03:10:42;;;;;;;6.63;6.13;;;;;;;;;;2088892;28;20045;-63
2023/05/17 03:12:01;;;;;;;6.72;6.32;;;;;;;;;;2091502;28;20025;-64
2023/05/17 03:13:20;;;;;;;6.75;6.35;;;;;;;;;;2087833;28;20482;-63
2023/05/17 03:14:39;;;;;;;7.30;6.88;;;;;;;;;;2092291;28;20044;-64
2023/05/17 03:15:58;;;;;;;6.85;6.45;;;;;;;;;;2088496;28;20029;-63
2023/05/17 03:17:17;;;;;;;6.75;6.35;;;;;;;;;;2091470;28;20028;-63
2023/05/17 03:18:36;;;;;;;7.03;6.50;;;;;;;;;;2088604;28;20037;-63
2023/05/17 03:19:55;;;;;;;11.40;6.93;;;;;;;;;;2093223;28;20036;-63
2023/05/17 03:21:14;;;;;;;7.68;6.97;;;;;;;;;;2091234;28;20103;-63
2023/05/17 03:22:33;;;;;;;7.85;6.53;;;;;;;;;;2091486;28;20053;-67
2023/05/17 03:23:52;;;;;;;7.03;6.57;;;;;;;;;;2092993;28;20501;-63
2023/05/17 03:25:11;;;;;;;7.47;6.95;;;;;;;;;;2089539;28;20116;-63
2023/05/17 03:26:32;;;;;;;7.45;7.05;;;;;;;;;;2092231;28;20028;-63
2023/05/17 03:27:51;;;;;;;7.53;7.00;;;;;;;;;;2091243;28;20028;-63
2023/05/17 03:29:10;;;;;;;6.80;6.15;;;;;;;;;;2092689;28;20029;-64
2023/05/17 03:30:29;;;;;;;6.80;6.30;;;;;;;;;;2090875;28;20028;-64
2023/05/17 03:31:48;;;;;;;7.60;6.18;;;;;;;;;;2090893;28;20029;-66
2023/05/17 03:33:07;;;;;;;6.47;6.00;;;;;;;;;;2089504;28;20467;-63
2023/05/17 03:34:26;;;;;;;6.85;6.45;;;;;;;;;;2092726;28;20032;-65
2023/05/17 03:35:45;;;;;;;6.65;6.15;;;;;;;;;;2093490;28;20029;-63
2023/05/17 03:37:04;;;;;;;6.30;5.90;;;;;;;;;;2089016;28;20406;-64
2023/05/17 03:38:23;;;;;;;6.40;6.00;;;;;;;;;;2094562;28;20032;-63
2023/05/17 03:39:42;;;;;;;6.57;6.22;;;;;;;;;;2092860;28;20604;-63
2023/05/17 03:41:02;;;;;;;6.05;5.65;;;;;;;;;;2087371;28;20037;-64
2023/05/17 03:42:21;;;;;;;6.55;5.50;;;;;;;;;;2091826;28;20017;-64
2023/05/17 03:43:40;;;;;;;5.88;5.57;;;;;;;;;;2090716;28;20032;-63
2023/05/17 03:44:59;;;;;;;6.40;5.85;;;;;;;;;;2090219;28;20029;-64
2023/05/17 03:46:18;;;;;;;6.10;5.70;;;;;;;;;;2092303;28;20449;-63
2023/05/17 03:47:37;;;;;;;6.68;6.07;;;;;;;;;;2092575;28;20041;-64
2023/05/17 03:48:56;;;;;;;6.68;6.28;;;;;;;;;;2091407;28;20033;-64
2023/05/17 03:50:15;;;;;;;6.30;5.90;;;;;;;;;;2092292;28;20100;-63
2023/05/17 03:51:34;;;;;;;6.55;6.15;;;;;;;;;;2090989;28;20056;-63
2023/05/17 03:52:53;;;;;;;7.00;6.50;;;;;;;;;;2091335;28;20029;-63
2023/05/17 03:54:12;;;;;;;7.35;6.05;;;;;;;;;;2091361;28;20394;-63
2023/05/17 03:55:31;;;;;;;7.05;6.25;;;;;;;;;;2090293;28;20599;-63
2023/05/17 03:56:50;;;;;;;6.40;5.85;;;;;;;;;;2091218;28;20060;-63
2023/05/17 03:58:09;;;;;;;5.70;5.30;;;;;;;;;;2092432;28;20497;-63
2023/05/17 03:59:28;;;;;;;6.32;5.82;;;;;;;;;;2091942;28;20013;-63
2023/05/17 04:00:46;;;;;;;5.65;5.32;;;;;;;;;;2090659;28;20037;-63
2023/05/17 04:02:05;;;;;;;6.13;5.72;;;;;;;;;;2091586;28;20398;-64
2023/05/17 04:03:24;;;;;;;6.85;5.95;;;;;;;;;;2091204;28;20366;-63
2023/05/17 04:04:50;;;;;;;6.07;5.68;;;;;;;;;;2094537;28;20562;-63
2023/05/17 04:06:09;;;;;;;6.28;5.88;;;;;;;;;;2090373;28;20048;-64
2023/05/17 04:07:28;;;;;;;5.78;5.38;;;;;;;;;;2093715;28;20052;-63
2023/05/17 04:08:47;;;;;;;6.30;5.97;;;;;;;;;;2091606;28;20029;-63
2023/05/17 04:10:06;;;;;;;6.15;5.70;;;;;;;;;;2093764;28;20025;-63
2023/05/17 04:11:26;;;;;;;5.88;5.57;;;;;;;;;;2090507;28;20033;-63
2023/05/17 04:12:45;;;;;;;6.82;5.30;;;;;;;;;;2092539;28;20020;-63
2023/05/17 04:14:04;;;;;;;6.30;5.90;;;;;;;;;;2093135;28;20036;-63
2023/05/17 04:15:23;;;;;;;5.78;5.28;;;;;;;;;;2092484;28;20584;-63
2023/05/17 04:16:41;;;;;;;6.15;5.72;;;;;;;;;;2095225;28;20032;-63
2023/05/17 04:18:01;;;;;;;5.97;5.68;;;;;;;;;;2090955;28;20037;-63
2023/05/17 04:19:19;;;;;;;6.20;5.70;;;;;;;;;;2092971;28;20028;-63
2023/05/17 04:20:38;;;;;;;7.65;5.50;;;;;;;;;;2088481;28;20037;-63
2023/05/17 04:21:57;;;;;;;6.15;5.63;;;;;;;;;;2089940;28;20029;-63
2023/05/17 04:23:16;;;;;;;6.03;5.72;;;;;;;;;;2087999;28;20377;-63
2023/05/17 04:24:36;;;;;;;5.65;5.35;;;;;;;;;;2092082;28;20111;-63
2023/05/17 04:25:56;;;;;;;6.07;5.57;;;;;;;;;;2091495;28;20033;-63
2023/05/17 04:27:16;;;;;;;5.93;5.60;;;;;;;;;;2092964;28;20100;-63
2023/05/17 04:28:35;;;;;;;5.93;5.40;;;;;;;;;;2091938;28;20048;-63
2023/05/17 04:29:53;;;;;;;5.85;5.45;;;;;;;;;;2090788;28;20393;-63
2023/05/17 04:31:14;;;;;;;5.90;5.50;;;;;;;;;;2089963;28;20802;-63
2023/05/17 04:32:33;;;;;;;7.57;5.88;;;;;;;;;;2089518;28;20025;-62
2023/05/17 04:33:52;;;;;;;6.10;5.70;;;;;;;;;;2091541;28;20413;-63
2023/05/17 04:35:11;;;;;;;5.63;5.13;;;;;;;;;;2092452;28;20016;-63
2023/05/17 04:36:30;;;;;;;5.90;5.50;;;;;;;;;;2093232;28;20032;-63
2023/05/17 04:37:49;;;;;;;6.25;5.82;;;;;;;;;;2088135;28;20029;-64
2023/05/17 04:39:08;;;;;;;6.15;5.57;;;;;;;;;;2090811;28;20036;-63
2023/05/17 04:40:27;;;;;;;5.95;5.25;;;;;;;;;;2093099;28;20439;-63
2023/05/17 04:41:46;;;;;;;5.38;5.07;;;;;;;;;;2088599;28;20502;-63
2023/05/17 04:43:05;;;;;;;5.32;5.03;;;;;;;;;;2089995;28;20018;-63
2023/05/17 04:44:25;;;;;;;5.32;4.93;;;;;;;;;;2088582;28;20033;-62
2023/05/17 04:45:44;;;;;;;5.38;4.97;;;;;;;;;;2091898;28;20025;-63
2023/05/17 04:47:03;;;;;;;5.15;4.80;;;;;;;;;;2092918;28;20063;-63
2023/05/17 04:48:22;;;;;;;5.63;5.22;;;;;;;;;;2090747;28;20033;-63
2023/05/17 04:49:42;;;;;;;5.45;5.13;;;;;;;;;;2087571;28;20398;-63
2023/05/17 04:51:02;;;;;;;6.30;5.18;;;;;;;;;;2094161;28;20033;-64
2023/05/17 04:52:21;;;;;;;5.00;4.70;;;;;;;;;;2093774;28;20029;-63
2023/05/17 04:53:40;;;;;;;5.30;5.00;;;;;;;;;;2087803;28;20029;-63
2023/05/17 04:54:59;;;;;;;5.43;4.88;;;;;;;;;;2090916;28;20021;-63
2023/05/17 04:56:18;;;;;;;5.32;5.00;;;;;;;;;;2091975;28;20025;-63
2023/05/17 04:57:37;;;;;;;5.53;4.90;;;;;;;;;;2091530;28;20028;-63
2023/05/17 04:58:56;;;;;;;5.72;5.32;;;;;;;;;;2087726;28;20060;-63
2023/05/17 05:00:15;;;;;;;5.53;5.13;;;;;;;;;;2087809;28;20478;-63
2023/05/17 05:01:34;;;;;;;6.20;5.70;;;;;;;;;;2091383;28;20489;-63
2023/05/17 05:02:53;;;;;;;6.80;6.40;;;;;;;;;;2092050;28;20037;-63
2023/05/17 05:04:12;;;;;;;6.80;6.20;;;;;;;;;;2091886;28;20107;-66
2023/05/17 05:05:31;;;;;;;6.70;6.30;;;;;;;;;;2086900;28;20515;-63
2023/05/17 05:06:51;;;;;;;7.07;6.47;;;;;;;;;;2089565;28;20706;-63
2023/05/17 05:08:10;;;;;;;6.43;6.03;;;;;;;;;;2091785;28;20028;-63
2023/05/17 05:09:29;;;;;;;6.93;6.43;;;;;;;;;;2094035;28;20107;-63
2023/05/17 05:10:48;;;;;;;7.13;6.63;;;;;;;;;;2090079;28;20024;-63
2023/05/17 05:12:07;;;;;;;6.07;5.68;;;;;;;;;;2088796;28;20439;-63
2023/05/17 05:13:26;;;;;;;6.80;6.40;;;;;;;;;;2091281;28;20464;-63
2023/05/17 05:14:48;;;;;;;7.78;7.28;;;;;;;;;;2086481;28;20037;-63
2023/05/17 05:16:07;;;;;;;6.78;6.28;;;;;;;;;;2092562;28;20024;-63
2023/05/17 05:17:28;;;;;;;6.28;5.88;;;;;;;;;;2090918;28;20502;-63
2023/05/17 05:18:47;;;;;;;6.70;6.30;;;;;;;;;;2088204;28;20072;-63
2023/05/17 05:20:06;;;;;;;6.10;5.60;;;;;;;;;;2090626;28;20029;-63
2023/05/17 05:21:26;;;;;;;6.75;6.20;;;;;;;;;;2093923;28;20036;-63
2023/05/17 05:22:45;;;;;;;6.65;6.18;;;;;;;;;;2091882;28;20037;-63
2023/05/17 05:24:04;;;;;;;7.03;6.50;;;;;;;;;;2092517;28;20680;-63
2023/05/17 05:25:23;;;;;;;6.90;6.25;;;;;;;;;;2090795;28;20846;-63
2023/05/17 05:26:42;;;;;;;7.47;6.88;;;;;;;;;;2091705;28;20483;-63
2023/05/17 05:28:00;;;;;;;6.60;6.20;;;;;;;;;;2090697;28;20108;-63
2023/05/17 05:29:20;;;;;;;7.10;6.40;;;;;;;;;;2089913;28;20033;-64
2023/05/17 05:30:39;;;;;;;6.60;6.10;;;;;;;;;;2089149;28;20048;-63
2023/05/17 05:31:58;;;;;;;7.40;6.82;;;;;;;;;;2091815;28;20475;-63
2023/05/17 05:33:17;;;;;;;6.85;6.35;;;;;;;;;;2091761;28;20028;-63
2023/05/17 05:34:37;;;;;;;6.45;6.03;;;;;;;;;;2091299;28;20028;-63
2023/05/17 05:35:56;;;;;;;6.93;6.43;;;;;;;;;;2091095;28;20024;-63
2023/05/17 05:37:15;;;;;;;7.07;6.38;;;;;;;;;;2089521;28;20434;-63
2023/05/17 05:38:35;;;;;;;6.60;6.13;;;;;;;;;;2090509;28;20017;-63
2023/05/17 05:39:54;;;;;;;6.03;5.55;;;;;;;;;;2091252;28;20485;-63
2023/05/17 05:41:13;;;;;;;6.88;6.20;;;;;;;;;;2087961;28;20032;-64
2023/05/17 05:42:32;;;;;;;7.97;6.10;;;;;;;;;;2092503;28;20029;-64
2023/05/17 05:43:51;;;;;;;7.05;6.25;;;;;;;;;;2091140;28;20095;-64
2023/05/17 05:45:10;;;;;;;6.10;5.45;;;;;;;;;;2094500;28;20020;-63
2023/05/17 05:46:28;;;;;;;6.72;5.65;;;;;;;;;;2093787;28;20046;-63
2023/05/17 05:47:47;;;;;;;6.28;5.88;;;;;;;;;;2085736;28;20486;-63
2023/05/17 05:49:06;;;;;;;8.50;5.90;;;;;;;;;;2089993;28;20037;-64
2023/05/17 05:50:25;;;;;;;6.47;5.88;;;;;;;;;;2090410;28;20117;-64
2023/05/17 05:51:44;;;;;;;7.20;6.20;;;;;;;;;;2087572;28;20052;-63
2023/05/17 05:53:03;;;;;;;5.68;5.25;;;;;;;;;;2087371;28;20045;-63
2023/05/17 05:54:22;;;;;;;5.22;4.72;;;;;;;;;;2093507;28;20024;-67
2023/05/17 05:55:41;;;;;;;5.90;5.50;;;;;;;;;;2090341;28;20036;-63
2023/05/17 05:57:01;;;;;;;5.53;5.07;;;;;;;;;;2090756;28;20029;-63
2023/05/17 05:58:20;;;;;;;5.30;4.75;;;;;;;;;;2092064;28;20474;-63
2023/05/17 05:59:39;;;;;;;6.97;5.43;;;;;;;;;;2093046;28;20481;-63
2023/05/17 06:00:59;;;;;;;6.45;5.85;;;;;;;;;;2091365;28;20033;-63
2023/05/17 06:02:18;;;;;;;7.53;6.78;;;;;;;;;;2090181;28;20028;-64
2023/05/17 06:03:37;;;;;;;6.68;6.03;;;;;;;;;;2087946;28;20036;-63
2023/05/17 06:04:56;;;;;;;7.30;6.80;;;;;;;;;;2089086;28;20036;-64
2023/05/17 06:06:17;;;;;;;6.97;6.57;;;;;;;;;;2093314;28;20036;-64
2023/05/17 06:07:36;;;;;;;7.18;6.63;;;;;;;;;;2091396;28;20503;-63
2023/05/17 06:08:55;;;;;;;10.80;7.53;;;;;;;;;;2089388;28;20028;-63
2023/05/17 06:10:14;;;;;;;7.35;5.97;;;;;;;;;;2094633;28;20036;-63
2023/05/17 06:11:33;;;;;;;7.28;6.50;;;;;;;;;;2089838;28;20037;-63
2023/05/17 06:12:52;;;;;;;6.45;5.85;;;;;;;;;;2092998;28;20493;-63
2023/05/17 06:14:12;;;;;;;5.88;5.47;;;;;;;;;;2094295;28;20490;-63
2023/05/17 06:15:30;;;;;;;6.25;5.40;;;;;;;;;;2092297;28;20029;-63
2023/05/17 06:16:49;;;;;;;4.78;4.47;;;;;;;;;;2090588;28;20119;-63
2023/05/17 06:18:08;;;;;;;3.95;3.75;;;;;;;;;;2089682;28;20045;-63
2023/05/17 06:19:27;;;;;;;4.10;3.70;;;;;;;;;;2090305;28;20033;-63
2023/05/17 06:20:47;;;;;;;4.20;3.85;;;;;;;;;;2088155;28;20021;-63
2023/05/17 06:22:05;;;;;;;4.47;4.18;;;;;;;;;;2089408;28;20029;-63
2023/05/17 06:23:24;;;;;;;4.05;2.90;;;;;;;;;;2092627;28;20033;-63
2023/05/17 06:24:43;;;;;;;5.43;3.58;;;;;;;;;;2093507;28;20199;-63
2023/05/17 06:26:02;;;;;;;4.10;3.80;;;;;;;;;;2090544;28;20032;-63
2023/05/17 06:27:21;;;;;;;3.72;3.50;;;;;;;;;;2092985;28;20521;-64
2023/05/17 06:28:40;;;;;;;4.78;3.95;;;;;;;;;;2092891;28;20455;-63
2023/05/17 06:30:00;;;;;;;3.70;3.50;;;;;;;;;;2090435;28;20088;-63
2023/05/17 06:31:18;;;;;;;3.65;3.45;;;;;;;;;;2088735;28;20033;-63
2023/05/17 06:32:38;;;;;;;4.18;3.88;;;;;;;;;;2090131;28;20037;-64
2023/05/17 06:33:56;;;;;;;6.90;5.45;;;;;;;;;;2091977;28;20415;-63
2023/05/17 06:35:16;;;;;;;4.88;4.47;;;;;;;;;;2091482;28;20032;-64
2023/05/17 06:36:38;;;;;;;3.75;3.55;;;;;;;;;;2093106;28;20524;-64
2023/05/17 06:37:57;;;;;;;3.22;3.08;;;;;;;;;;2093773;28;20555;-65
2023/05/17 06:39:16;;;;;;;3.28;3.03;;;;;;;;;;2090257;28;20163;-64
2023/05/17 06:40:35;;;;;;;3.17;2.88;;;;;;;;;;2088619;28;20029;-65
2023/05/17 06:41:54;;;;;;;3.13;2.92;;;;;;;;;;2093073;28;20024;-67
2023/05/17 06:43:13;;;;;;;3.50;3.20;;;;;;;;;;2093811;28;20029;-64
2023/05/17 06:44:32;;;;;;;3.40;2.85;;;;;;;;;;2090770;28;20017;-65
2023/05/17 06:45:51;;;;;;;3.47;2.92;;;;;;;;;;2087799;28;20029;-65
2023/05/17 06:47:10;;;;;;;7.18;5.53;;;;;;;;;;2089826;28;20032;-64
2023/05/17 06:48:29;;;;;;;4.22;3.30;;;;;;;;;;2089879;28;20107;-64
2023/05/17 06:49:48;;;;;;;2.97;2.78;;;;;;;;;;2093674;28;20111;-64
2023/05/17 06:51:07;;;;;;;2.60;2.50;;;;;;;;;;2093180;28;20029;-64
2023/05/17 06:52:26;;;;;;;3.28;2.53;;;;;;;;;;2085691;28;20024;-64
2023/05/17 06:53:45;;;;;;;3.05;2.80;;;;;;;;;;2092105;28;20052;-65
2023/05/17 06:55:04;;;;;;;2.63;2.42;;;;;;;;;;2088021;28;20028;-66
2023/05/17 06:56:23;;;;;;;2.25;2.15;;;;;;;;;;2090081;28;20651;-64
2023/05/17 06:57:42;;;;;;;2.92;2.40;;;;;;;;;;2089281;28;20020;-66
2023/05/17 06:59:01;;;;;;;2.15;2.05;;;;;;;;;;2087826;28;20025;-64
2023/05/17 07:00:20;;;;;;;2.88;2.05;;;;;;;;;;2088398;28;20029;-64
2023/05/17 07:01:39;;;;;;;2.53;2.42;;;;;;;;;;2085425;28;20033;-64
2023/05/17 07:02:58;;;;;;;2.40;2.30;;;;;;;;;;2091476;28;20017;-64
2023/05/17 07:04:18;;;;;;;2.22;2.10;;;;;;;;;;2092393;28;20016;-64
2023/05/17 07:05:37;;;;;;;3.25;2.17;;;;;;;;;;2090320;28;20029;-64
2023/05/17 07:06:56;;;;;;;2.38;2.17;;;;;;;;;;2088449;28;20525;-64
2023/05/17 07:08:14;;;;;;;2.38;2.28;;;;;;;;;;2089081;28;20699;-64
2023/05/17 07:09:33;;;;;;;2.25;2.15;;;;;;;;;;2092578;28;20040;-64
2023/05/17 07:10:52;;;;;;;2.53;2.42;;;;;;;;;;2093720;28;20424;-63
2023/05/17 07:12:11;;;;;;;2.28;2.17;;;;;;;;;;2091842;28;20123;-64
2023/05/17 07:13:30;;;;;;;2.47;2.28;;;;;;;;;;2091019;28;20494;-64
2023/05/17 07:14:49;;;;;;;2.35;2.25;;;;;;;;;;2091618;28;20049;-64
2023/05/17 07:16:08;;;;;;;2.83;2.08;;;;;;;;;;2090699;28;20024;-64
2023/05/17 07:17:28;;;;;;;2.10;2.00;;;;;;;;;;2091204;28;20104;-64
2023/05/17 07:18:47;;;;;;;2.22;2.13;;;;;;;;;;2089955;28;20424;-64
2023/05/17 07:20:06;;;;;;;2.30;2.20;;;;;;;;;;2088675;28;20033;-64
2023/05/17 07:21:25;;;;;;;2.20;2.10;;;;;;;;;;2089309;28;20033;-64
2023/05/17 07:22:44;;;;;;;2.50;2.40;;;;;;;;;;2089833;28;20029;-64
2023/05/17 07:24:04;;;;;;;2.33;2.22;;;;;;;;;;2094130;28;20036;-64
2023/05/17 07:25:22;;;;;;;2.50;2.30;;;;;;;;;;2095042;28;20060;-64
2023/05/17 07:26:41;;;;;;;2.08;1.98;;;;;;;;;;2093716;28;20490;-64
2023/05/17 07:28:00;;;;;;;2.22;2.13;;;;;;;;;;2090694;28;20029;-64
2023/05/17 07:29:19;;;;;;;2.60;2.38;;;;;;;;;;2090277;28;20033;-64
2023/05/17 07:30:38;;;;;;;2.90;2.70;;;;;;;;;;2087230;28;20037;-63
2023/05/17 07:31:57;;;;;;;2.55;2.40;;;;;;;;;;2090722;28;20017;-63
2023/05/17 07:33:16;;;;;;;3.00;2.80;;;;;;;;;;2092131;28;20029;-63
2023/05/17 07:34:35;;;;;;;2.42;2.22;;;;;;;;;;2092523;28;20049;-63
2023/05/17 07:35:54;;;;;;;2.95;2.75;;;;;;;;;;2091981;28;20037;-64
2023/05/17 07:37:13;;;;;;;2.90;2.70;;;;;;;;;;2091330;28;20028;-63
2023/05/17 07:38:34;;;;;;;3.28;3.08;;;;;;;;;;2092051;28;20028;-63
2023/05/17 07:39:53;;;;;;;3.45;2.40;;;;;;;;;;2091336;28;20486;-63
2023/05/17 07:41:15;;;;;;;1.60;1.50;;;;;;;;;;2095174;28;20116;-63
2023/05/17 07:42:34;;;;;;;1.70;1.60;;;;;;;;;;2093275;28;20016;-63
2023/05/17 07:43:53;;;;;;;2.75;1.67;;;;;;;;;;2094045;28;20032;-63
2023/05/17 07:45:12;;;;;;;1.50;1.38;;;;;;;;;;2091526;28;20043;-63
2023/05/17 07:46:31;;;;;;;1.88;1.30;;;;;;;;;;2095087;28;20021;-64
2023/05/17 07:47:50;;;;;;;1.25;0.82;;;;;;;;;;2095159;28;20477;-63
2023/05/17 07:49:09;;;;;;;2.00;1.30;;;;;;;;;;2093546;28;20040;-63
2023/05/17 07:50:28;;;;;;;1.27;1.15;;;;;;;;;;2089972;28;20040;-63
2023/05/17 07:51:46;;;;;;;1.17;0.73;;;;;;;;;;2091242;28;20577;-64
2023/05/17 07:53:05;;;;;;;1.00;0.90;;;;;;;;;;2090297;28;20037;-63
2023/05/17 07:54:26;;;;;;;0.82;0.82;;;;;;;;;;2094756;28;20036;-63
2023/05/17 07:55:45;;;;;;;1.75;0.70;;;;;;;;;;2095249;28;20025;-63
2023/05/17 07:57:04;;;;;;;0.95;0.95;;;;;;;;;;2093992;28;20037;-63